Time;durP1;ratioP1;P1;durP2;ratioP2;P2;SDS_P1;SDS_P2;PMS_P1;PMS_P2;Temp;Humidity;BMP_temperature;BMP_pressure;BME280_temperature;BME280_humidity;BME280_pressure;Samples;Min_cycle;Max_cycle;Signal;HPM_P1;HPM_P2
2022/04/12 00:02:24;;;;;;;9.82;4.28;;;7.70;99.90;;;;;;4954212;29;20043;-83
2022/04/12 00:04:49;;;;;;;11.02;4.90;;;7.10;99.90;;;;;;4953968;29;20129;-81
2022/04/12 00:07:15;;;;;;;8.23;4.80;;;7.00;99.90;;;;;;4936779;29;20063;-83
2022/04/12 00:09:41;;;;;;;11.20;4.78;;;7.40;99.90;;;;;;4921386;29;20039;-82
2022/04/12 00:12:08;;;;;;;9.80;4.60;;;7.20;99.90;;;;;;4920976;29;20062;-82
2022/04/12 00:14:34;;;;;;;8.63;4.40;;;7.00;99.90;;;;;;4936522;29;20086;-82
2022/04/12 00:19:44;;;;;;;9.15;4.63;;;6.90;99.90;;;;;;4962943;28;20043;-82
2022/04/12 00:22:10;;;;;;;8.70;4.40;;;6.90;99.90;;;;;;4920279;29;20114;-83
2022/04/12 00:24:35;;;;;;;10.95;4.43;;;7.50;99.90;;;;;;4936860;29;20062;-82
2022/04/12 00:27:01;;;;;;;8.27;4.57;;;6.90;99.90;;;;;;4953404;29;20443;-83
2022/04/12 00:29:28;;;;;;;10.13;4.78;;;7.10;99.90;;;;;;4953314;29;20050;-85
2022/04/12 00:31:54;;;;;;;9.95;4.97;;;6.80;99.90;;;;;;4953794;29;20097;-82
2022/04/12 00:34:20;;;;;;;8.63;4.95;;;6.80;99.90;;;;;;4935903;29;20133;-83
2022/04/12 00:36:46;;;;;;;11.68;4.80;;;6.80;99.90;;;;;;4953480;29;20070;-82
2022/04/12 00:39:12;;;;;;;13.48;4.70;;;6.80;99.90;;;;;;4953089;29;20399;-83
2022/04/12 00:41:37;;;;;;;12.57;4.82;;;7.20;99.90;;;;;;4935626;29;20056;-82
2022/04/12 00:44:03;;;;;;;7.28;4.40;;;6.70;99.90;;;;;;4953227;29;20051;-84
2022/04/12 00:46:29;;;;;;;9.55;4.70;;;6.70;99.90;;;;;;4935556;29;20058;-81
2022/04/12 00:48:55;;;;;;;9.98;4.97;;;6.90;99.90;;;;;;4920305;29;20070;-81
2022/04/12 00:51:22;;;;;;;10.82;4.55;;;6.70;99.90;;;;;;4953168;29;20490;-82
2022/04/12 00:53:49;;;;;;;9.40;4.50;;;6.60;99.90;;;;;;4952509;29;20582;-81
2022/04/12 00:56:15;;;;;;;14.15;4.60;;;6.60;99.90;;;;;;4953097;29;20062;-82
2022/04/12 00:58:45;;;;;;;9.05;4.43;;;6.60;99.90;;;;;;4953183;29;20413;-82
2022/04/12 01:01:10;;;;;;;9.30;5.00;;;6.60;99.90;;;;;;4945229;29;20491;-82
2022/04/12 01:03:36;;;;;;;9.70;4.80;;;6.60;99.90;;;;;;4952973;29;20071;-82
2022/04/12 01:06:02;;;;;;;12.98;5.05;;;6.60;99.90;;;;;;4952737;29;20049;-83
2022/04/12 01:08:28;;;;;;;10.10;5.30;;;6.60;99.90;;;;;;4952826;28;20061;-81
2022/04/12 01:10:55;;;;;;;12.43;5.65;;;6.50;99.90;;;;;;4951816;29;20051;-80
2022/04/12 01:13:20;;;;;;;8.73;4.72;;;6.50;99.90;;;;;;4952643;29;20449;-84
2022/04/12 01:15:46;;;;;;;12.43;5.63;;;6.50;99.90;;;;;;4919501;29;20129;-81
2022/04/12 01:18:12;;;;;;;9.45;4.68;;;6.40;99.90;;;;;;4952421;29;20039;-83
2022/04/12 01:20:38;;;;;;;8.10;4.78;;;6.70;99.90;;;;;;4952643;29;20051;-80
2022/04/12 01:23:27;;;;;;;9.45;5.55;;;7.00;99.90;;;;;;4952300;29;20051;-82
2022/04/12 01:25:53;;;;;;;10.52;4.78;;;6.40;99.90;;;;;;4952226;29;20039;-81
2022/04/12 01:28:19;;;;;;;8.55;5.18;;;6.70;99.90;;;;;;4952334;29;20051;-82
2022/04/12 01:30:50;;;;;;;13.40;5.95;;;6.40;99.90;;;;;;4952788;29;20447;-81
2022/04/12 01:33:15;;;;;;;10.68;6.03;;;6.70;99.90;;;;;;4952353;29;20086;-81
2022/04/12 01:35:52;;;;;;;12.43;5.55;;;6.30;99.90;;;;;;4952781;29;20089;-81
2022/04/12 01:38:18;;;;;;;9.85;5.68;;;6.90;99.90;;;;;;4934834;29;20055;-82
2022/04/12 01:40:43;;;;;;;12.23;5.38;;;6.30;99.90;;;;;;4918587;29;20059;-83
2022/04/12 01:43:10;;;;;;;9.25;5.53;;;6.30;99.90;;;;;;4952088;29;20051;-82
2022/04/12 01:45:36;;;;;;;11.55;6.30;;;6.30;99.90;;;;;;4952174;29;20071;-82
2022/04/12 01:48:02;;;;;;;14.90;6.25;;;6.30;99.90;;;;;;4952273;29;20043;-83
2022/04/12 01:50:27;;;;;;;11.52;6.57;;;6.30;99.90;;;;;;4952576;29;20443;-82
2022/04/12 01:52:53;;;;;;;11.20;5.88;;;6.20;99.90;;;;;;4952076;29;20079;-81
2022/04/12 01:55:18;;;;;;;10.90;5.40;;;6.20;99.90;;;;;;4952117;29;20126;-82
2022/04/12 01:57:45;;;;;;;9.65;6.13;;;6.20;99.90;;;;;;4933635;29;20063;-82
2022/04/12 02:00:11;;;;;;;11.40;6.30;;;6.20;99.90;;;;;;4951226;29;20388;-81
2022/04/12 02:02:37;;;;;;;12.27;5.90;;;6.10;99.90;;;;;;4951313;29;20049;-80
2022/04/12 02:05:02;;;;;;;12.68;6.28;;;6.10;99.90;;;;;;4951971;29;20409;-81
2022/04/12 02:07:28;;;;;;;9.77;5.90;;;6.10;99.90;;;;;;4934519;29;20050;-83
2022/04/12 02:09:56;;;;;;;10.35;6.35;;;6.10;99.90;;;;;;4951961;29;20062;-78
2022/04/12 02:12:22;;;;;;;12.30;6.80;;;6.10;99.90;;;;;;4950819;29;20055;-82
2022/04/12 02:14:48;;;;;;;12.52;6.55;;;6.00;99.90;;;;;;4951577;29;20040;-81
2022/04/12 02:17:13;;;;;;;14.23;7.20;;;6.00;99.90;;;;;;4951290;29;20126;-81
2022/04/12 02:19:39;;;;;;;10.85;6.55;;;6.00;99.90;;;;;;4933913;29;20035;-82
2022/04/12 02:22:05;;;;;;;13.18;6.22;;;6.00;99.90;;;;;;4955220;28;20161;-81
2022/04/12 02:24:31;;;;;;;12.00;7.03;;;6.20;99.90;;;;;;4956076;29;20058;-82
2022/04/12 02:26:59;;;;;;;8.90;6.40;;;6.70;99.90;;;;;;4923201;29;20039;-82
2022/04/12 02:29:25;;;;;;;12.32;7.00;;;6.70;99.90;;;;;;4955828;29;20054;-83
2022/04/12 02:31:50;;;;;;;10.93;6.95;;;6.80;99.90;;;;;;4956184;29;20076;-82
2022/04/12 02:34:16;;;;;;;12.10;6.47;;;5.90;99.90;;;;;;4956273;29;20073;-81
2022/04/12 02:36:43;;;;;;;11.48;6.82;;;5.90;99.90;;;;;;4955974;29;20440;-82
2022/04/12 02:39:08;;;;;;;11.82;7.35;;;5.90;99.90;;;;;;4955891;29;20046;-83
2022/04/12 02:41:36;;;;;;;12.57;8.23;;;5.90;99.90;;;;;;4937454;29;20124;-81
2022/04/12 02:44:02;;;;;;;14.82;7.20;;;5.90;99.90;;;;;;4937759;29;20533;-82
2022/04/12 02:46:27;;;;;;;13.18;7.35;;;5.90;99.90;;;;;;4955564;29;20117;-82
2022/04/12 02:48:53;;;;;;;14.43;7.47;;;5.90;99.90;;;;;;4936616;29;20507;-81
2022/04/12 02:51:19;;;;;;;14.23;6.97;;;5.90;99.90;;;;;;4936783;29;20043;-83
2022/04/12 02:53:45;;;;;;;13.13;7.57;;;6.50;99.90;;;;;;4936598;29;20510;-82
2022/04/12 02:56:10;;;;;;;11.93;6.60;;;5.80;99.90;;;;;;4936501;29;20051;-81
2022/04/12 02:58:36;;;;;;;13.10;7.78;;;5.80;99.90;;;;;;4937225;29;20051;-82
2022/04/12 03:01:02;;;;;;;13.35;7.57;;;6.00;99.90;;;;;;4955525;29;20046;-83
2022/04/12 03:03:29;;;;;;;15.35;7.65;;;6.20;99.90;;;;;;4922346;29;20079;-83
2022/04/12 03:05:57;;;;;;;12.50;7.43;;;5.80;99.90;;;;;;4955387;29;20141;-82
2022/04/12 03:08:23;;;;;;;13.07;7.50;;;6.30;99.90;;;;;;4955284;29;20151;-82
2022/04/12 03:10:49;;;;;;;14.55;8.05;;;6.30;99.90;;;;;;4954880;29;20130;-83
2022/04/12 03:13:15;;;;;;;10.45;7.45;;;5.70;99.90;;;;;;4922014;29;20043;-83
2022/04/12 03:15:40;;;;;;;13.48;7.90;;;5.70;99.90;;;;;;4955474;29;20063;-85
2022/04/12 03:18:06;;;;;;;15.60;8.20;;;6.20;99.90;;;;;;4955694;29;20055;-84
2022/04/12 03:20:32;;;;;;;14.40;8.27;;;5.70;99.90;;;;;;4956562;29;20047;-82
2022/04/12 03:22:59;;;;;;;12.27;7.65;;;5.60;99.90;;;;;;4937384;29;20106;-82
2022/04/12 03:25:24;;;;;;;17.10;7.93;;;5.60;99.90;;;;;;4953456;29;20052;-82
2022/04/12 03:27:50;;;;;;;13.60;8.43;;;6.00;99.90;;;;;;4969313;29;20069;-81
2022/04/12 03:30:16;;;;;;;15.13;8.07;;;5.60;99.90;;;;;;4961705;29;20043;-81
2022/04/12 03:32:42;;;;;;;16.05;7.82;;;5.60;99.90;;;;;;4956871;28;20055;-83
2022/04/12 03:35:08;;;;;;;11.10;7.78;;;5.60;99.90;;;;;;4942748;29;20122;-81
2022/04/12 03:37:34;;;;;;;11.85;7.80;;;5.60;99.90;;;;;;4958912;29;20110;-84
2022/04/12 03:39:59;;;;;;;14.05;8.80;;;6.10;99.90;;;;;;4954868;28;20035;-81
2022/04/12 03:42:25;;;;;;;15.82;8.65;;;5.60;99.90;;;;;;4954779;29;20070;-82
2022/04/12 03:44:51;;;;;;;13.13;7.82;;;5.50;99.90;;;;;;4938005;29;20054;-82
2022/04/12 03:47:17;;;;;;;13.50;8.20;;;5.50;99.90;;;;;;4954517;29;20059;-81
2022/04/12 03:49:43;;;;;;;13.70;8.13;;;5.70;99.90;;;;;;4954808;29;20046;-81
2022/04/12 03:52:09;;;;;;;16.00;8.63;;;5.50;99.90;;;;;;4954699;29;20047;-83
2022/04/12 03:54:36;;;;;;;13.75;8.38;;;5.50;99.90;;;;;;4954723;29;20054;-82
2022/04/12 03:57:02;;;;;;;13.02;8.82;;;5.50;99.90;;;;;;4954699;29;20094;-84
2022/04/12 03:59:28;;;;;;;15.98;8.57;;;5.50;99.90;;;;;;4954459;29;20098;-82
2022/04/12 04:01:53;;;;;;;15.02;8.80;;;5.50;99.90;;;;;;4953735;29;20490;-82
2022/04/12 04:04:19;;;;;;;11.77;7.90;;;5.50;99.90;;;;;;4954635;29;20062;-83
2022/04/12 04:06:45;;;;;;;15.00;8.40;;;5.50;99.90;;;;;;4936986;29;20087;-83
2022/04/12 04:09:11;;;;;;;15.82;8.50;;;5.50;99.90;;;;;;4954373;29;20118;-83
2022/04/12 04:11:43;;;;;;;19.27;8.77;;;5.90;99.90;;;;;;4954134;29;20446;-82
2022/04/12 04:14:10;;;;;;;13.13;7.85;;;5.50;99.90;;;;;;4953851;29;20051;-82
2022/04/12 04:16:37;;;;;;;14.48;8.07;;;5.90;99.90;;;;;;4936502;29;20503;-85
2022/04/12 04:19:02;;;;;;;14.35;8.75;;;5.40;99.90;;;;;;4954018;29;20089;-82
2022/04/12 04:21:28;;;;;;;14.65;8.93;;;5.40;99.90;;;;;;4954166;29;20085;-82
2022/04/12 04:23:54;;;;;;;17.65;9.65;;;5.70;99.90;;;;;;4936533;29;20425;-82
2022/04/12 04:26:19;;;;;;;12.20;8.10;;;5.40;99.90;;;;;;4954002;29;20089;-82
2022/04/12 04:28:46;;;;;;;15.05;8.60;;;5.70;99.90;;;;;;4953789;29;20175;-82
2022/04/12 04:31:12;;;;;;;12.88;8.25;;;5.60;99.90;;;;;;4953798;29;20051;-84
2022/04/12 04:33:38;;;;;;;12.57;8.38;;;5.40;99.90;;;;;;4953724;29;20546;-82
2022/04/12 04:36:03;;;;;;;14.10;8.68;;;5.40;99.90;;;;;;4953851;29;20046;-81
2022/04/12 04:38:29;;;;;;;15.82;9.07;;;5.40;99.90;;;;;;4936922;29;20047;-82
2022/04/12 04:40:55;;;;;;;13.43;8.77;;;5.40;99.90;;;;;;4953602;28;20055;-82
2022/04/12 04:43:20;;;;;;;14.43;8.68;;;6.10;99.90;;;;;;4936141;28;20062;-83
2022/04/12 04:45:46;;;;;;;13.80;9.00;;;5.40;99.90;;;;;;4953001;29;20427;-82
2022/04/12 04:48:12;;;;;;;14.00;9.43;;;5.40;99.90;;;;;;4953255;29;20118;-81
2022/04/12 04:50:38;;;;;;;12.63;8.50;;;5.40;99.90;;;;;;4953235;29;20053;-81
2022/04/12 04:53:06;;;;;;;16.88;9.27;;;6.10;99.90;;;;;;4952243;29;20051;-82
2022/04/12 04:55:36;;;;;;;14.18;8.55;;;5.40;99.90;;;;;;4953315;29;20125;-83
2022/04/12 04:58:02;;;;;;;14.40;9.18;;;5.40;99.90;;;;;;4936011;29;20062;-83
2022/04/12 05:00:34;;;;;;;17.10;9.43;;;5.40;99.90;;;;;;4953008;29;20051;-84
2022/04/12 05:03:01;;;;;;;14.68;8.60;;;5.40;99.90;;;;;;4935615;29;20122;-81
2022/04/12 05:05:27;;;;;;;17.98;9.60;;;5.40;99.90;;;;;;4952951;29;20055;-82
2022/04/12 05:07:55;;;;;;;15.80;9.98;;;5.40;99.90;;;;;;4936292;29;20066;-82
2022/04/12 05:10:28;;;;;;;15.18;9.07;;;5.40;99.90;;;;;;4954196;29;20140;-81
2022/04/12 05:12:55;;;;;;;17.38;9.30;;;5.40;99.90;;;;;;4953411;29;20051;-84
2022/04/12 05:15:20;;;;;;;13.85;9.75;;;5.90;99.90;;;;;;4954412;29;20047;-83
2022/04/12 05:17:50;;;;;;;13.43;9.00;;;5.50;99.90;;;;;;4967155;29;20051;-85
2022/04/12 05:20:17;;;;;;;15.52;9.65;;;5.50;99.90;;;;;;4949913;29;20054;-81
2022/04/12 05:22:43;;;;;;;17.17;9.32;;;5.50;99.90;;;;;;4966511;29;20054;-82
2022/04/12 05:25:09;;;;;;;13.30;9.70;;;5.50;99.90;;;;;;4966049;29;20047;-81
2022/04/12 05:27:35;;;;;;;17.63;9.60;;;6.30;99.90;;;;;;4958744;29;20094;-80
2022/04/12 05:30:10;;;;;;;13.25;9.25;;;5.60;99.90;;;;;;4943511;29;20040;-81
2022/04/12 05:32:36;;;;;;;18.17;9.80;;;5.70;99.90;;;;;;4958914;29;20055;-81
2022/04/12 05:35:03;;;;;;;14.73;8.82;;;5.70;99.90;;;;;;4936349;29;20055;-81
2022/04/12 05:37:31;;;;;;;15.65;9.82;;;5.80;99.90;;;;;;4953086;29;20047;-80
2022/04/12 05:39:57;;;;;;;13.82;8.68;;;5.80;99.90;;;;;;4952613;28;20126;-83
2022/04/12 05:42:25;;;;;;;14.52;9.13;;;5.90;99.90;;;;;;4952537;29;20055;-82
2022/04/12 05:44:51;;;;;;;15.38;9.07;;;6.00;99.90;;;;;;4935389;29;20133;-82
2022/04/12 05:47:17;;;;;;;12.52;9.10;;;6.00;99.90;;;;;;4935192;29;20126;-82
2022/04/12 05:49:42;;;;;;;17.40;9.13;;;6.10;99.90;;;;;;4952882;29;20076;-84
2022/04/12 05:52:08;;;;;;;14.93;9.55;;;6.50;99.90;;;;;;4952470;29;20046;-81
2022/04/12 05:54:34;;;;;;;16.20;8.95;;;6.20;99.90;;;;;;4935604;29;20541;-82
2022/04/12 05:56:59;;;;;;;17.23;9.43;;;6.20;99.90;;;;;;4952369;28;20122;-83
2022/04/12 05:59:25;;;;;;;15.70;9.77;;;6.60;99.90;;;;;;4952807;29;20047;-84
2022/04/12 06:01:51;;;;;;;17.33;9.50;;;6.30;99.90;;;;;;4952822;29;20491;-81
2022/04/12 06:04:16;;;;;;;14.23;8.93;;;6.50;99.90;;;;;;4919730;29;20071;-83
2022/04/12 06:06:42;;;;;;;14.77;8.82;;;6.40;99.90;;;;;;4935207;29;20074;-83
2022/04/12 06:09:08;;;;;;;13.02;8.57;;;6.90;99.90;;;;;;4952690;29;20134;-82
2022/04/12 06:11:34;;;;;;;13.77;9.50;;;6.60;99.90;;;;;;4952384;29;20043;-82
2022/04/12 06:14:00;;;;;;;14.85;9.15;;;7.00;99.90;;;;;;4935132;29;20051;-80
2022/04/12 06:16:28;;;;;;;13.00;9.02;;;7.10;99.90;;;;;;4952904;29;20507;-85
2022/04/12 06:18:55;;;;;;;13.00;8.80;;;6.70;99.90;;;;;;4952566;29;20067;-83
2022/04/12 06:21:22;;;;;;;11.77;7.93;;;6.80;99.90;;;;;;4952867;29;20391;-84
2022/04/12 06:23:47;;;;;;;17.73;8.90;;;6.80;99.90;;;;;;4952293;29;20186;-82
2022/04/12 06:26:13;;;;;;;14.02;8.88;;;7.60;99.90;;;;;;4952559;29;20130;-85
2022/04/12 06:28:39;;;;;;;16.80;9.80;;;7.50;99.90;;;;;;4934833;29;20131;-81
2022/04/12 06:31:05;;;;;;;14.85;9.55;;;7.00;99.90;;;;;;4952288;29;20035;-82
2022/04/12 06:33:37;;;;;;;14.98;9.60;;;7.10;99.90;;;;;;4919727;29;20505;-81
2022/04/12 06:36:02;;;;;;;17.52;9.55;;;7.10;99.90;;;;;;4952481;29;20043;-84
2022/04/12 06:38:28;;;;;;;13.85;8.57;;;7.20;99.90;;;;;;4918777;29;20379;-85
2022/04/12 06:40:54;;;;;;;15.50;9.10;;;7.20;99.90;;;;;;4951617;28;20492;-84
2022/04/12 06:43:19;;;;;;;15.80;8.98;;;7.30;99.90;;;;;;4951892;29;20083;-82
2022/04/12 06:45:45;;;;;;;13.02;9.07;;;7.40;99.90;;;;;;4934723;29;20054;-84
2022/04/12 06:48:11;;;;;;;14.43;8.68;;;8.00;99.90;;;;;;4952049;29;20047;-83
2022/04/12 06:50:36;;;;;;;17.80;9.25;;;7.50;99.90;;;;;;4916794;29;20502;-84
2022/04/12 06:53:05;;;;;;;14.50;9.23;;;7.50;99.90;;;;;;4941027;29;20056;-84
2022/04/12 06:55:31;;;;;;;17.20;9.55;;;7.50;99.90;;;;;;4951777;29;20538;-83
2022/04/12 06:57:57;;;;;;;13.77;8.50;;;7.60;99.90;;;;;;4918769;29;20182;-83
2022/04/12 07:00:23;;;;;;;12.38;8.70;;;7.60;99.90;;;;;;4966113;28;20113;-81
2022/04/12 07:02:49;;;;;;;15.82;8.80;;;7.60;99.90;;;;;;4933008;29;20043;-83
2022/04/12 07:05:18;;;;;;;13.50;9.18;;;7.80;99.90;;;;;;4932878;29;20543;-86
2022/04/12 07:07:44;;;;;;;15.75;9.48;;;7.70;99.90;;;;;;4916728;29;20056;-85
2022/04/12 07:10:12;;;;;;;13.48;8.88;;;8.20;99.90;;;;;;4902865;29;20048;-83
2022/04/12 07:12:38;;;;;;;14.23;8.35;;;8.40;99.90;;;;;;4936094;29;20179;-81
2022/04/12 07:15:05;;;;;;;15.98;8.88;;;7.70;99.90;;;;;;4942074;29;20538;-85
2022/04/12 07:17:31;;;;;;;18.20;8.75;;;7.80;99.90;;;;;;4954962;29;20052;-82
2022/04/12 07:19:56;;;;;;;13.88;9.02;;;7.90;99.90;;;;;;4937876;29;20186;-81
2022/04/12 07:22:22;;;;;;;13.98;9.13;;;8.10;99.90;;;;;;4955298;29;20449;-84
2022/04/12 07:24:48;;;;;;;13.80;10.02;;;8.00;99.90;;;;;;4936357;29;20035;-84
2022/04/12 07:27:14;;;;;;;12.80;8.68;;;8.50;99.90;;;;;;4954998;29;20047;-82
2022/04/12 07:29:39;;;;;;;15.60;9.60;;;8.90;99.90;;;;;;4921150;29;20062;-81
2022/04/12 07:32:05;;;;;;;14.20;8.93;;;9.00;99.90;;;;;;4937318;29;20074;-85
2022/04/12 07:34:31;;;;;;;16.88;9.50;;;8.40;99.90;;;;;;4922022;29;20055;-83
2022/04/12 07:36:57;;;;;;;13.02;8.82;;;8.50;99.90;;;;;;4933294;29;20442;-84
2022/04/12 07:39:24;;;;;;;16.35;9.70;;;8.50;99.90;;;;;;4937147;29;20111;-85
2022/04/12 07:41:51;;;;;;;13.48;8.55;;;8.60;99.90;;;;;;4936884;29;20059;-88
2022/04/12 07:44:18;;;;;;;16.60;9.20;;;9.30;99.90;;;;;;4954864;29;20055;-83
2022/04/12 07:46:44;;;;;;;12.52;8.85;;;8.90;99.90;;;;;;4954794;29;20380;-84
2022/04/12 07:49:10;;;;;;;13.02;8.77;;;9.40;99.90;;;;;;4920937;29;20446;-84
2022/04/12 07:51:36;;;;;;;14.05;9.45;;;9.70;99.90;;;;;;4937225;29;20062;-83
2022/04/12 07:54:03;;;;;;;12.95;8.07;;;9.20;99.90;;;;;;4954801;29;20483;-82
2022/04/12 07:56:33;;;;;;;15.15;9.57;;;9.30;99.90;;;;;;4921066;29;20050;-84
2022/04/12 07:58:59;;;;;;;13.25;8.55;;;9.50;99.90;;;;;;4954281;29;20047;-82
2022/04/12 08:01:25;;;;;;;15.10;8.48;;;9.70;99.90;;;;;;4937131;29;20049;-81
2022/04/12 08:03:50;;;;;;;16.75;8.85;;;9.90;99.90;;;;;;4920210;29;20573;-82
2022/04/12 08:06:16;;;;;;;12.50;8.25;;;10.10;99.90;;;;;;4934187;29;20062;-79
2022/04/12 08:08:43;;;;;;;12.88;7.72;;;10.10;99.90;;;;;;4954385;29;20046;-83
2022/04/12 08:11:08;;;;;;;12.73;7.82;;;10.80;99.90;;;;;;4936587;29;20061;-84
2022/04/12 08:13:34;;;;;;;11.50;7.55;;;10.70;99.90;;;;;;4953937;29;20130;-81
2022/04/12 08:16:00;;;;;;;13.40;8.65;;;10.70;99.90;;;;;;4937553;29;20491;-81
2022/04/12 08:18:26;;;;;;;17.65;8.77;;;10.90;99.90;;;;;;4954331;28;20086;-85
2022/04/12 08:20:53;;;;;;;11.57;8.18;;;11.60;99.90;;;;;;4954055;29;20528;-84
2022/04/12 08:23:22;;;;;;;12.50;8.27;;;11.30;99.90;;;;;;4954949;29;20054;-84
2022/04/12 08:25:48;;;;;;;13.50;8.00;;;11.60;99.90;;;;;;4936042;29;20055;-83
2022/04/12 08:28:14;;;;;;;13.13;8.10;;;11.90;99.90;;;;;;4953946;29;20043;-82
2022/04/12 08:30:40;;;;;;;12.40;7.68;;;12.10;99.90;;;;;;4954021;29;20138;-83
2022/04/12 08:33:06;;;;;;;12.95;8.13;;;12.80;99.90;;;;;;4936785;29;20487;-83
2022/04/12 08:35:31;;;;;;;12.63;8.02;;;12.60;99.90;;;;;;4954119;29;20492;-85
2022/04/12 08:38:02;;;;;;;13.48;8.10;;;12.80;99.90;;;;;;4954320;29;20047;-84
2022/04/12 08:40:29;;;;;;;11.07;7.45;;;13.00;99.90;;;;;;4951749;28;20071;-83
2022/04/12 08:43:01;;;;;;;13.85;7.93;;;13.20;99.90;;;;;;4973718;28;20039;-84
2022/04/12 08:45:30;;;;;;;12.23;7.57;;;13.40;99.90;;;;;;4956053;28;20248;-84
2022/04/12 08:47:57;;;;;;;11.90;7.53;;;13.40;99.90;;;;;;4974311;28;20061;-85
2022/04/12 08:50:23;;;;;;;11.38;8.20;;;13.70;99.90;;;;;;4949105;29;20495;-84
2022/04/12 08:52:50;;;;;;;11.55;7.40;;;13.80;99.90;;;;;;4931700;29;20078;-84
2022/04/12 08:55:16;;;;;;;15.25;8.25;;;13.90;99.90;;;;;;4941334;29;20558;-84
2022/04/12 08:57:45;;;;;;;14.68;8.38;;;14.10;99.90;;;;;;4935187;29;20055;-84
2022/04/12 09:00:16;;;;;;;13.07;7.07;;;14.30;99.90;;;;;;4919946;29;20126;-85
2022/04/12 09:03:00;;;;;;;12.32;8.32;;;14.30;99.90;;;;;;4953291;29;20047;-85
2022/04/12 09:05:27;;;;;;;12.50;7.60;;;14.50;99.90;;;;;;4953326;29;20134;-84
2022/04/12 09:07:55;;;;;;;11.88;7.82;;;14.70;99.90;;;;;;4936305;29;20502;-84
2022/04/12 09:10:35;;;;;;;10.40;7.53;;;15.10;99.90;;;;;;4953449;29;20035;-85
2022/04/12 09:13:12;;;;;;;12.90;8.20;;;14.90;99.90;;;;;;4953433;29;20171;-84
2022/04/12 09:15:47;;;;;;;12.52;8.10;;;15.00;99.90;;;;;;4935447;29;20047;-84
2022/04/12 09:18:13;;;;;;;14.32;8.57;;;15.20;99.90;;;;;;4919939;29;20051;-84
2022/04/12 09:20:41;;;;;;;10.48;7.63;;;15.30;99.90;;;;;;4953115;29;20055;-84
2022/04/12 09:23:16;;;;;;;12.20;7.45;;;15.50;99.90;;;;;;4952835;29;20054;-83
2022/04/12 09:25:55;;;;;;;13.55;8.25;;;15.80;99.90;;;;;;4953215;29;20043;-84
2022/04/12 09:28:21;;;;;;;10.05;7.30;;;16.00;99.90;;;;;;4934610;29;20376;-86
2022/04/12 09:31:01;;;;;;;15.55;7.38;;;16.00;99.90;;;;;;4952014;28;20105;-86
2022/04/12 09:33:39;;;;;;;14.57;7.53;;;16.30;99.90;;;;;;4919899;29;20461;-85
2022/04/12 09:36:05;;;;;;;13.13;8.35;;;16.40;99.90;;;;;;4952442;29;20073;-84
2022/04/12 09:38:36;;;;;;;11.10;7.68;;;16.50;99.90;;;;;;4953273;29;20124;-86
2022/04/12 09:41:34;;;;;;;10.70;7.78;;;16.70;99.90;;;;;;4919857;29;20098;-83
2022/04/12 09:44:08;;;;;;;21.33;8.65;;;16.60;99.40;;;;;;4855975;29;20093;-88
2022/04/12 09:46:42;;;;;;;14.10;8.18;;;16.70;99.90;;;;;;4856248;29;20061;-87
2022/04/12 09:49:48;;;;;;;27.65;11.80;;;16.90;99.90;;;;;;4872071;29;20064;-87
2022/04/12 09:52:34;;;;;;;11.77;7.78;;;17.00;99.40;;;;;;4838640;29;20074;-88
2022/04/12 09:55:00;;;;;;;10.43;7.35;;;17.10;99.70;;;;;;4823169;29;20054;-87
2022/04/12 09:57:25;;;;;;;10.43;7.57;;;17.20;98.80;;;;;;4837699;29;20583;-85
2022/04/12 09:59:56;;;;;;;12.50;7.78;;;17.20;99.60;;;;;;4837985;29;20668;-89
2022/04/12 10:02:24;;;;;;;12.55;7.15;;;17.40;99.60;;;;;;4822011;29;20088;-86
2022/04/12 10:04:52;;;;;;;13.73;8.50;;;17.40;98.50;;;;;;4822352;29;20049;-88
2022/04/12 10:07:31;;;;;;;11.43;7.20;;;17.50;98.80;;;;;;4822706;29;20073;-91
2022/04/12 10:09:58;;;;;;;13.20;7.72;;;17.60;99.00;;;;;;4822969;29;20084;-89
2022/04/12 10:12:24;;;;;;;10.35;7.25;;;17.90;98.30;;;;;;4822186;29;20153;-86
2022/04/12 10:14:50;;;;;;;13.40;7.57;;;18.00;98.00;;;;;;4837671;29;20174;-88
2022/04/12 10:17:16;;;;;;;11.95;7.63;;;18.10;96.90;;;;;;4822382;29;20092;-83
2022/04/12 10:19:42;;;;;;;12.95;7.95;;;18.30;97.50;;;;;;4862789;29;20103;-88
2022/04/12 10:22:08;;;;;;;14.25;7.43;;;18.30;96.40;;;;;;4913021;29;20060;-89
2022/04/12 10:24:47;;;;;;;12.50;7.75;;;18.50;96.80;;;;;;4912366;29;20115;-86
2022/04/12 10:27:13;;;;;;;10.57;7.20;;;18.60;96.00;;;;;;4912037;29;20491;-88
2022/04/12 10:29:40;;;;;;;13.45;7.57;;;18.70;94.90;;;;;;4946034;28;20059;-87
2022/04/12 10:32:12;;;;;;;9.07;7.18;;;18.70;94.70;;;;;;4935695;29;20107;-85
2022/04/12 10:34:58;;;;;;;11.13;7.20;;;18.90;96.10;;;;;;4952267;29;20102;-86
2022/04/12 10:37:27;;;;;;;14.55;7.80;;;19.00;93.80;;;;;;4966566;28;20582;-87
2022/04/12 10:40:02;;;;;;;11.32;7.45;;;19.20;95.10;;;;;;4967091;28;20144;-84
2022/04/12 10:42:33;;;;;;;13.75;7.20;;;19.20;94.10;;;;;;4953058;28;20059;-87
2022/04/12 10:45:02;;;;;;;10.30;7.47;;;19.40;94.60;;;;;;4938655;29;20073;-84
2022/04/12 10:47:33;;;;;;;10.57;7.72;;;19.50;94.10;;;;;;4955953;29;20050;-85
2022/04/12 10:50:01;;;;;;;12.30;7.82;;;19.40;92.80;;;;;;4938645;29;20139;-85
2022/04/12 10:52:48;;;;;;;11.93;7.70;;;19.40;92.00;;;;;;4955913;29;20050;-87
2022/04/12 10:55:25;;;;;;;11.82;7.68;;;19.40;91.60;;;;;;4938428;29;20056;-85
2022/04/12 10:58:28;;;;;;;11.57;7.50;;;19.30;92.00;;;;;;4955713;29;20043;-92
2022/04/12 11:00:54;;;;;;;10.75;7.28;;;19.40;91.60;;;;;;4955200;29;20040;-84
2022/04/12 11:03:46;;;;;;;15.40;7.90;;;19.50;90.70;;;;;;4955179;29;20102;-85
2022/04/12 11:06:26;;;;;;;11.73;7.53;;;19.50;91.00;;;;;;4944955;29;20495;-85
2022/04/12 11:08:54;;;;;;;10.00;6.97;;;19.60;90.80;;;;;;4955440;29;20407;-85
2022/04/12 11:11:26;;;;;;;15.63;7.18;;;19.70;91.00;;;;;;4955751;29;20079;-85
2022/04/12 11:13:53;;;;;;;11.50;7.40;;;19.90;91.30;;;;;;4937993;29;20055;-84
2022/04/12 11:16:20;;;;;;;11.57;7.43;;;20.10;91.40;;;;;;4922241;29;20414;-86
2022/04/12 11:18:51;;;;;;;13.00;7.03;;;20.30;90.60;;;;;;4955111;29;20450;-83
2022/04/12 11:21:19;;;;;;;11.40;7.05;;;20.30;90.90;;;;;;4922310;29;20079;-87
2022/04/12 11:23:57;;;;;;;9.98;6.75;;;20.40;89.90;;;;;;4922315;29;20058;-85
2022/04/12 11:26:32;;;;;;;11.55;6.53;;;20.50;86.60;;;;;;4955460;29;20055;-89
2022/04/12 11:28:58;;;;;;;13.30;7.35;;;20.40;88.50;;;;;;4955103;29;20142;-88
2022/04/12 11:31:44;;;;;;;10.00;7.20;;;20.50;89.40;;;;;;4955564;29;20047;-87
2022/04/12 11:34:11;;;;;;;13.52;8.82;;;20.30;87.50;;;;;;4921897;29;20134;-87
2022/04/12 11:36:38;;;;;;;9.90;6.57;;;20.40;88.30;;;;;;4969842;28;20454;-88
2022/04/12 11:39:05;;;;;;;14.45;7.28;;;20.60;88.00;;;;;;4954762;29;20131;-82
2022/04/12 11:41:31;;;;;;;10.45;6.82;;;20.50;87.90;;;;;;4954527;28;20126;-86
2022/04/12 11:44:04;;;;;;;12.35;7.13;;;20.60;88.40;;;;;;4921544;29;20066;-88
2022/04/12 11:46:33;;;;;;;12.23;7.03;;;20.60;87.70;;;;;;4954769;29;20134;-84
2022/04/12 11:49:16;;;;;;;11.05;7.28;;;20.50;88.20;;;;;;4954537;29;20062;-87
2022/04/12 11:51:48;;;;;;;11.43;7.03;;;20.50;88.50;;;;;;4936826;29;20498;-84
2022/04/12 11:54:34;;;;;;;12.27;7.40;;;20.40;87.90;;;;;;4953657;28;20128;-85
2022/04/12 11:57:17;;;;;;;10.00;6.80;;;20.40;88.90;;;;;;4921897;29;20055;-87
2022/04/12 11:59:49;;;;;;;11.88;6.78;;;20.20;88.40;;;;;;4969937;28;20057;-86
2022/04/12 12:02:16;;;;;;;12.48;6.95;;;20.20;88.70;;;;;;4955088;29;20134;-87
2022/04/12 12:04:47;;;;;;;15.82;7.10;;;20.40;89.40;;;;;;4975360;29;20047;-86
2022/04/12 12:07:14;;;;;;;12.00;6.60;;;20.50;87.80;;;;;;4976490;29;20086;-84
2022/04/12 12:09:52;;;;;;;11.70;6.93;;;20.70;89.80;;;;;;4966423;29;20051;-85
2022/04/12 12:12:18;;;;;;;10.70;6.38;;;20.80;89.80;;;;;;4956461;29;20182;-87
2022/04/12 12:14:44;;;;;;;9.27;6.80;;;20.70;87.40;;;;;;4923725;29;20527;-83
2022/04/12 12:17:18;;;;;;;11.90;6.90;;;20.70;85.90;;;;;;4937036;29;20051;-88
2022/04/12 12:19:45;;;;;;;10.88;7.00;;;20.60;86.30;;;;;;4954213;29;20502;-87
2022/04/12 12:22:25;;;;;;;15.40;7.05;;;20.50;85.40;;;;;;4935164;29;20054;-88
2022/04/12 12:24:55;;;;;;;9.27;6.63;;;20.60;86.70;;;;;;4936946;29;20105;-85
2022/04/12 12:27:34;;;;;;;11.55;6.70;;;20.70;87.10;;;;;;4953843;29;20121;-87
2022/04/12 12:30:16;;;;;;;12.77;6.80;;;20.80;85.80;;;;;;4954043;29;20054;-88
2022/04/12 12:32:43;;;;;;;9.20;6.20;;;20.90;85.40;;;;;;4968564;28;20368;-88
2022/04/12 12:35:29;;;;;;;10.30;6.15;;;20.80;84.80;;;;;;4936609;29;20070;-89
2022/04/12 12:38:27;;;;;;;10.25;6.50;;;20.90;84.60;;;;;;4936453;29;20406;-88
2022/04/12 12:40:56;;;;;;;13.52;6.70;;;21.00;83.60;;;;;;4952999;28;20059;-82
2022/04/12 12:43:43;;;;;;;11.90;7.32;;;20.90;84.10;;;;;;4932146;29;20051;-87
2022/04/12 12:46:10;;;;;;;11.98;6.93;;;20.90;83.30;;;;;;4917320;29;20063;-87
2022/04/12 12:48:36;;;;;;;13.30;7.13;;;20.90;83.30;;;;;;4943648;29;20494;-83
2022/04/12 12:51:19;;;;;;;11.60;7.03;;;20.90;82.20;;;;;;4953404;29;20051;-85
2022/04/12 12:53:45;;;;;;;9.63;6.30;;;20.90;81.80;;;;;;4919986;29;20055;-86